Time;durP1;ratioP1;P1;durP2;ratioP2;P2;SDS_P1;SDS_P2;PMS_P1;PMS_P2;Temp;Humidity;BMP_temperature;BMP_pressure;BME280_temperature;BME280_humidity;BME280_pressure;Samples;Min_cycle;Max_cycle;Signal;HPM_P1;HPM_P2
2022/06/23 20:30:17;;;;;;;11.65;3.40;;;26.30;99.90;;;;;;5063408;28;20705;-62
2022/06/23 20:33:15;;;;;;;13.45;4.55;;;25.90;99.90;;;;;;5064349;28;20036;-62
2022/06/23 20:35:50;;;;;;;11.23;3.60;;;25.80;99.90;;;;;;5053969;28;20170;-62
2022/06/23 20:38:32;;;;;;;11.20;4.05;;;25.70;99.90;;;;;;5060842;28;20037;-62
2022/06/23 20:41:31;;;;;;;11.57;3.20;;;25.60;99.90;;;;;;5060486;28;20021;-62
2022/06/23 20:43:56;;;;;;;8.55;3.13;;;25.60;99.90;;;;;;5056767;28;20383;-63
2022/06/23 20:46:53;;;;;;;7.95;3.80;;;25.60;99.90;;;;;;5061685;28;20077;-63
2022/06/23 20:49:41;;;;;;;10.90;3.83;;;25.50;99.90;;;;;;5053199;28;20079;-62
2022/06/23 20:52:11;;;;;;;5.10;3.33;;;25.50;99.90;;;;;;5060493;28;20099;-62
2022/06/23 20:55:13;;;;;;;10.02;3.47;;;25.40;99.90;;;;;;5096983;22;20040;-63
2022/06/23 20:58:04;;;;;;;8.48;4.00;;;25.30;99.90;;;;;;5101857;28;20067;-63
2022/06/23 21:00:53;;;;;;;10.43;3.90;;;25.30;99.90;;;;;;5101557;28;20023;-63
2022/06/23 21:03:41;;;;;;;5.40;3.10;;;25.20;99.90;;;;;;5102873;28;20012;-62
2022/06/23 21:06:30;;;;;;;11.32;3.42;;;25.10;99.90;;;;;;5084420;28;20016;-63
2022/06/23 21:08:58;;;;;;;11.23;3.22;;;25.00;99.90;;;;;;5080022;28;20095;-62
2022/06/23 21:11:50;;;;;;;11.02;3.83;;;25.00;99.90;;;;;;5078887;28;20379;-62
2022/06/23 21:14:28;;;;;;;14.43;4.60;;;25.00;99.90;;;;;;5074762;28;20097;-63
2022/06/23 21:17:29;;;;;;;8.27;3.97;;;24.90;99.90;;;;;;5081430;28;20028;-62
2022/06/23 21:20:10;;;;;;;9.63;3.05;;;24.80;99.90;;;;;;5084922;28;20166;-63
2022/06/23 21:22:53;;;;;;;12.60;3.55;;;24.80;99.90;;;;;;5079657;28;20394;-62
2022/06/23 21:25:37;;;;;;;7.97;3.63;;;24.70;99.90;;;;;;5083766;28;20510;-63
2022/06/23 21:28:34;;;;;;;11.85;3.60;;;24.60;99.90;;;;;;5084439;28;20044;-63
2022/06/23 21:31:16;;;;;;;8.38;3.22;;;24.60;99.90;;;;;;5081187;28;20147;-61
2022/06/23 21:33:46;;;;;;;13.27;3.50;;;24.60;99.90;;;;;;5082461;28;20703;-62
2022/06/23 21:36:17;;;;;;;12.38;3.67;;;24.60;99.90;;;;;;5074052;28;20024;-62
2022/06/23 21:39:03;;;;;;;5.20;3.25;;;24.60;99.90;;;;;;5077445;28;20028;-61
2022/06/23 21:41:51;;;;;;;9.07;3.30;;;24.60;99.90;;;;;;5070508;28;20028;-62
2022/06/23 21:45:04;;;;;;;8.75;3.80;;;24.50;99.90;;;;;;5064633;28;20108;-64
2022/06/23 21:47:54;;;;;;;12.60;4.03;;;24.40;99.90;;;;;;5010035;28;20030;-61
2022/06/23 21:50:32;;;;;;;7.22;3.17;;;24.40;99.90;;;;;;5064703;28;20056;-59
2022/06/23 21:53:04;;;;;;;7.28;3.90;;;24.30;99.90;;;;;;5063948;28;20521;-61
2022/06/23 21:55:36;;;;;;;8.25;3.72;;;24.30;99.90;;;;;;5068859;28;20510;-62
2022/06/23 21:58:27;;;;;;;8.18;3.80;;;24.20;99.90;;;;;;5065745;28;20032;-62
2022/06/23 22:00:59;;;;;;;11.13;3.60;;;24.10;99.90;;;;;;5062766;28;20013;-60
2022/06/23 22:03:38;;;;;;;13.07;3.78;;;24.10;99.90;;;;;;5065761;28;20494;-60
2022/06/23 22:06:19;;;;;;;8.95;3.88;;;24.10;99.90;;;;;;5067530;28;20599;-62
2022/06/23 22:09:01;;;;;;;8.38;3.65;;;24.10;99.90;;;;;;5063020;28;20033;-62
2022/06/23 22:11:41;;;;;;;7.65;3.92;;;24.10;99.90;;;;;;5066675;28;20061;-62
2022/06/23 22:14:16;;;;;;;11.40;3.80;;;24.00;99.90;;;;;;5067034;28;20025;-63
2022/06/23 22:16:47;;;;;;;10.00;3.83;;;24.00;99.90;;;;;;5062316;28;20056;-63
2022/06/23 22:19:22;;;;;;;9.20;3.67;;;24.00;99.90;;;;;;5072735;28;20139;-62
2022/06/23 22:22:11;;;;;;;11.73;4.30;;;23.70;99.90;;;;;;5068707;28;20024;-63
2022/06/23 22:27:48;;;;;;;9.50;4.05;;;23.30;99.90;;;;;;5060689;28;20040;-62
2022/06/23 22:30:31;;;;;;;12.00;5.32;;;23.00;99.90;;;;;;5059820;28;20056;-61
2022/06/23 22:33:22;;;;;;;14.73;5.00;;;23.00;99.90;;;;;;5061436;28;20035;-63
2022/06/23 22:36:20;;;;;;;12.30;5.43;;;22.80;99.90;;;;;;5060650;28;20029;-60
2022/06/23 22:38:55;;;;;;;8.95;5.05;;;22.80;99.90;;;;;;5061114;28;20052;-63
2022/06/23 22:41:22;;;;;;;14.65;5.93;;;22.70;99.90;;;;;;5061116;28;20032;-62
2022/06/23 22:43:50;;;;;;;12.90;5.53;;;22.60;99.90;;;;;;5067727;28;20036;-62
2022/06/23 22:46:21;;;;;;;18.27;5.50;;;22.60;99.90;;;;;;5062763;28;20024;-62
2022/06/23 22:49:32;;;;;;;14.70;4.93;;;22.60;99.90;;;;;;5063446;28;20029;-62
2022/06/23 22:51:57;;;;;;;10.15;5.07;;;22.60;99.90;;;;;;5060056;28;20060;-64
2022/06/23 22:54:26;;;;;;;10.38;5.75;;;22.30;99.90;;;;;;5060183;28;20545;-62
2022/06/23 22:56:54;;;;;;;16.08;5.85;;;22.10;99.90;;;;;;5061944;28;20025;-64
2022/06/23 22:59:28;;;;;;;10.00;5.50;;;22.00;99.90;;;;;;5062274;28;20670;-63
2022/06/23 23:01:55;;;;;;;19.50;6.70;;;21.60;99.90;;;;;;5061040;28;20033;-62
2022/06/23 23:04:45;;;;;;;10.75;5.85;;;21.50;99.90;;;;;;5063895;28;20024;-62
2022/06/23 23:07:25;;;;;;;10.52;6.57;;;21.30;99.90;;;;;;5064559;28;20028;-63
2022/06/23 23:09:54;;;;;;;11.98;6.85;;;21.30;99.90;;;;;;5065881;28;20037;-63
2022/06/23 23:12:27;;;;;;;17.92;6.95;;;21.30;99.90;;;;;;5068429;28;20043;-63
2022/06/23 23:14:55;;;;;;;13.18;7.47;;;21.20;99.90;;;;;;5066764;28;20048;-62
2022/06/23 23:17:20;;;;;;;14.25;6.45;;;21.10;99.90;;;;;;5068534;28;20055;-64
2022/06/23 23:19:49;;;;;;;15.95;6.25;;;21.20;99.90;;;;;;5062209;28;20483;-61
2022/06/23 23:22:27;;;;;;;11.50;5.95;;;21.30;99.90;;;;;;5068415;28;20131;-62
2022/06/23 23:24:54;;;;;;;10.68;6.32;;;21.40;99.90;;;;;;5068812;28;20029;-64
2022/06/23 23:27:19;;;;;;;11.50;7.38;;;21.30;99.90;;;;;;5068087;28;20024;-62
2022/06/23 23:30:03;;;;;;;14.65;6.60;;;21.40;99.90;;;;;;5069673;28;20031;-62
2022/06/23 23:32:30;;;;;;;13.30;5.70;;;21.40;99.90;;;;;;5071109;28;20024;-63
2022/06/23 23:34:58;;;;;;;14.10;6.70;;;21.50;99.90;;;;;;5066125;28;20047;-62
2022/06/23 23:37:24;;;;;;;14.38;5.40;;;21.50;99.90;;;;;;5068122;28;20871;-62
2022/06/23 23:40:15;;;;;;;17.67;8.23;;;21.40;99.90;;;;;;5067168;28;20029;-62
2022/06/23 23:42:40;;;;;;;12.98;6.75;;;21.40;99.90;;;;;;5064931;28;20094;-63
2022/06/23 23:45:06;;;;;;;14.65;6.60;;;21.40;99.90;;;;;;5067865;28;20107;-62
2022/06/23 23:47:36;;;;;;;16.92;7.13;;;21.30;99.90;;;;;;5068013;28;20024;-63
2022/06/23 23:50:07;;;;;;;11.82;5.68;;;21.30;99.90;;;;;;5066458;28;20028;-63
2022/06/23 23:52:34;;;;;;;21.50;6.75;;;21.20;99.90;;;;;;5066188;28;20524;-63
2022/06/23 23:55:07;;;;;;;11.07;6.30;;;21.30;99.90;;;;;;5068487;28;20048;-63
2022/06/23 23:57:37;;;;;;;15.48;6.22;;;21.20;99.90;;;;;;5066902;28;20052;-62
